sensor_id;sensor_type;location;lat;lon;timestamp;pressure;altitude;pressure_sealevel;temperature;humidity
20037;BME280;10179;42.640;23.312;2023-07-13T00:01:57;93920.06;;;27.52;35.22
20037;BME280;10179;42.640;23.312;2023-07-13T00:04:24;93950.16;;;27.71;34.76
20037;BME280;10179;42.640;23.312;2023-07-13T00:06:53;93963.31;;;27.81;34.79
20037;BME280;10179;42.640;23.312;2023-07-13T00:09:19;93967.88;;;27.90;34.93
20037;BME280;10179;42.640;23.312;2023-07-13T00:11:45;93910.38;;;27.51;35.06
20037;BME280;10179;42.640;23.312;2023-07-13T00:14:12;93726.22;;;26.18;34.83
20037;BME280;10179;42.640;23.312;2023-07-13T00:16:39;93952.03;;;27.79;35.27
20037;BME280;10179;42.640;23.312;2023-07-13T00:19:06;93979.88;;;28.01;34.97
20037;BME280;10179;42.640;23.312;2023-07-13T00:21:31;93871.13;;;27.24;35.04
20037;BME280;10179;42.640;23.312;2023-07-13T00:23:57;93919.25;;;27.60;35.13
20037;BME280;10179;42.640;23.312;2023-07-13T00:26:23;93929.19;;;27.68;35.13
20037;BME280;10179;42.640;23.312;2023-07-13T00:28:48;93895.31;;;27.50;35.76
20037;BME280;10179;42.640;23.312;2023-07-13T00:31:14;93974.94;;;28.03;35.47
20037;BME280;10179;42.640;23.312;2023-07-13T00:33:40;93939.19;;;27.76;35.76
20037;BME280;10179;42.640;23.312;2023-07-13T00:36:06;93976.59;;;27.95;35.67
20037;BME280;10179;42.640;23.312;2023-07-13T00:38:31;93957.13;;;27.72;35.95
20037;BME280;10179;42.640;23.312;2023-07-13T00:40:57;93971.22;;;27.87;35.76
20037;BME280;10179;42.640;23.312;2023-07-13T00:43:27;93714.97;;;26.16;35.94
20037;BME280;10179;42.640;23.312;2023-07-13T00:48:21;93983.97;;;27.77;36.46
20037;BME280;10179;42.640;23.312;2023-07-13T00:50:49;93963.97;;;27.70;36.12
20037;BME280;10179;42.640;23.312;2023-07-13T00:53:17;93856.31;;;26.92;36.38
20037;BME280;10179;42.640;23.312;2023-07-13T00:55:43;93939.00;;;27.43;36.64
20037;BME280;10179;42.640;23.312;2023-07-13T00:58:09;93920.16;;;27.26;36.80
20037;BME280;10179;42.640;23.312;2023-07-13T01:00:36;93970.03;;;27.58;37.06
20037;BME280;10179;42.640;23.312;2023-07-13T01:03:03;93934.28;;;27.31;37.22
20037;BME280;10179;42.640;23.312;2023-07-13T01:05:30;93959.78;;;27.43;37.72
20037;BME280;10179;42.640;23.312;2023-07-13T01:07:57;93959.97;;;27.38;37.54
20037;BME280;10179;42.640;23.312;2023-07-13T01:10:25;93974.13;;;27.34;37.80
20037;BME280;10179;42.640;23.312;2023-07-13T01:12:50;93958.56;;;27.31;37.68
20037;BME280;10179;42.640;23.312;2023-07-13T01:15:53;93957.75;;;27.40;37.57
20037;BME280;10179;42.640;23.312;2023-07-13T01:18:25;93961.41;;;27.26;37.83
20037;BME280;10179;42.640;23.312;2023-07-13T01:23:20;93867.66;;;26.59;38.19
20037;BME280;10179;42.640;23.312;2023-07-13T01:25:45;93953.81;;;27.11;38.05
20037;BME280;10179;42.640;23.312;2023-07-13T01:28:11;93524.38;;;24.32;38.23
20037;BME280;10179;42.640;23.312;2023-07-13T01:30:38;93959.06;;;27.07;38.53
20037;BME280;10179;42.640;23.312;2023-07-13T01:33:08;93895.41;;;26.59;38.56
20037;BME280;10179;42.640;23.312;2023-07-13T01:35:35;93957.00;;;26.96;38.31
20037;BME280;10179;42.640;23.312;2023-07-13T01:38:01;93891.44;;;26.57;38.72
20037;BME280;10179;42.640;23.312;2023-07-13T01:40:27;93916.31;;;26.71;38.37
20037;BME280;10179;42.640;23.312;2023-07-13T01:42:53;93911.09;;;26.66;38.30
20037;BME280;10179;42.640;23.312;2023-07-13T01:45:19;93958.47;;;26.93;38.24
20037;BME280;10179;42.640;23.312;2023-07-13T01:47:44;93911.72;;;26.63;38.63
20037;BME280;10179;42.640;23.312;2023-07-13T01:50:10;93957.53;;;26.89;38.83
20037;BME280;10179;42.640;23.312;2023-07-13T01:52:35;93920.28;;;26.65;38.68
20037;BME280;10179;42.640;23.312;2023-07-13T01:55:01;93954.66;;;26.77;39.30
20037;BME280;10179;42.640;23.312;2023-07-13T01:57:27;93909.63;;;26.42;39.26
20037;BME280;10179;42.640;23.312;2023-07-13T01:59:53;93958.97;;;26.69;39.48
20037;BME280;10179;42.640;23.312;2023-07-13T02:02:18;93865.31;;;26.05;39.82
20037;BME280;10179;42.640;23.312;2023-07-13T02:04:43;93957.06;;;26.61;39.80
20037;BME280;10179;42.640;23.312;2023-07-13T02:07:09;93957.72;;;26.58;39.96
20037;BME280;10179;42.640;23.312;2023-07-13T02:09:34;93960.69;;;26.56;40.09
20037;BME280;10179;42.640;23.312;2023-07-13T02:12:00;93861.16;;;25.99;40.24
20037;BME280;10179;42.640;23.312;2023-07-13T02:14:26;93955.31;;;26.56;40.32
20037;BME280;10179;42.640;23.312;2023-07-13T02:16:51;93963.72;;;26.55;40.25
20037;BME280;10179;42.640;23.312;2023-07-13T02:19:16;93959.44;;;26.54;40.32
20037;BME280;10179;42.640;23.312;2023-07-13T02:21:42;93966.56;;;26.50;40.50
20037;BME280;10179;42.640;23.312;2023-07-13T02:24:08;93897.75;;;26.09;40.40
20037;BME280;10179;42.640;23.312;2023-07-13T02:26:34;93935.78;;;26.25;40.96
20037;BME280;10179;42.640;23.312;2023-07-13T02:28:59;93963.69;;;26.37;40.79
20037;BME280;10179;42.640;23.312;2023-07-13T02:31:24;93975.09;;;26.34;40.73
20037;BME280;10179;42.640;23.312;2023-07-13T02:33:50;93942.09;;;26.11;40.95
20037;BME280;10179;42.640;23.312;2023-07-13T02:36:15;93972.56;;;26.29;40.95
20037;BME280;10179;42.640;23.312;2023-07-13T02:38:41;93968.44;;;26.23;41.25
20037;BME280;10179;42.640;23.312;2023-07-13T02:41:08;93950.81;;;26.08;41.19
20037;BME280;10179;42.640;23.312;2023-07-13T02:43:35;93941.09;;;25.81;41.32
20037;BME280;10179;42.640;23.312;2023-07-13T02:46:01;93882.94;;;25.63;41.28
20037;BME280;10179;42.640;23.312;2023-07-13T02:48:33;93966.84;;;26.22;41.30
20037;BME280;10179;42.640;23.312;2023-07-13T02:50:58;93972.84;;;26.19;41.07
20037;BME280;10179;42.640;23.312;2023-07-13T02:53:24;93918.16;;;25.84;41.29
20037;BME280;10179;42.640;23.312;2023-07-13T02:55:49;93706.03;;;24.37;41.77
20037;BME280;10179;42.640;23.312;2023-07-13T02:58:15;93929.34;;;25.77;41.50
20037;BME280;10179;42.640;23.312;2023-07-13T03:00:46;93960.13;;;25.93;41.99
20037;BME280;10179;42.640;23.312;2023-07-13T03:03:12;93820.69;;;24.98;41.65
20037;BME280;10179;42.640;23.312;2023-07-13T03:05:41;93970.59;;;25.95;41.83
20037;BME280;10179;42.640;23.312;2023-07-13T03:08:11;93844.88;;;24.98;41.89
20037;BME280;10179;42.640;23.312;2023-07-13T03:10:36;93948.69;;;25.79;42.31
20037;BME280;10179;42.640;23.312;2023-07-13T03:13:02;93893.16;;;25.43;42.09
20037;BME280;10179;42.640;23.312;2023-07-13T03:15:28;93783.25;;;24.62;41.77
20037;BME280;10179;42.640;23.312;2023-07-13T03:17:53;93990.72;;;26.06;42.11
20037;BME280;10179;42.640;23.312;2023-07-13T03:20:19;93837.41;;;25.18;41.92
20037;BME280;10179;42.640;23.312;2023-07-13T03:22:45;93993.91;;;26.08;41.64
20037;BME280;10179;42.640;23.312;2023-07-13T03:25:10;93987.72;;;26.08;41.74
20037;BME280;10179;42.640;23.312;2023-07-13T03:27:36;93969.81;;;25.94;42.28
20037;BME280;10179;42.640;23.312;2023-07-13T03:30:03;93870.34;;;25.32;43.22
20037;BME280;10179;42.640;23.312;2023-07-13T03:32:28;93973.28;;;25.95;43.17
20037;BME280;10179;42.640;23.312;2023-07-13T03:34:54;93989.31;;;26.09;43.77
20037;BME280;10179;42.640;23.312;2023-07-13T03:37:20;93905.38;;;25.50;43.69
20037;BME280;10179;42.640;23.312;2023-07-13T03:39:46;93903.47;;;25.50;44.18
20037;BME280;10179;42.640;23.312;2023-07-13T03:42:11;94002.16;;;26.12;44.12
20037;BME280;10179;42.640;23.312;2023-07-13T03:44:40;93958.53;;;25.92;44.26
20037;BME280;10179;42.640;23.312;2023-07-13T03:47:06;93868.28;;;25.29;44.56
20037;BME280;10179;42.640;23.312;2023-07-13T03:49:34;93842.78;;;25.18;44.92
20037;BME280;10179;42.640;23.312;2023-07-13T03:51:59;93987.75;;;26.25;44.82
20037;BME280;10179;42.640;23.312;2023-07-13T03:54:25;93988.88;;;26.33;44.85
20037;BME280;10179;42.640;23.312;2023-07-13T03:56:50;93988.38;;;26.39;44.35
20037;BME280;10179;42.640;23.312;2023-07-13T03:59:15;93959.09;;;26.29;44.38
20037;BME280;10179;42.640;23.312;2023-07-13T04:01:42;93804.56;;;25.38;44.50
20037;BME280;10179;42.640;23.312;2023-07-13T04:04:08;93988.91;;;26.68;44.43
20037;BME280;10179;42.640;23.312;2023-07-13T04:06:33;93898.38;;;25.97;44.26
20037;BME280;10179;42.640;23.312;2023-07-13T04:09:00;93837.72;;;26.00;43.79
20037;BME280;10179;42.640;23.312;2023-07-13T04:11:29;93967.53;;;26.71;43.83
20037;BME280;10179;42.640;23.312;2023-07-13T04:13:56;93895.22;;;26.73;43.71
20037;BME280;10179;42.640;23.312;2023-07-13T04:16:22;93946.53;;;27.20;43.81
20037;BME280;10179;42.640;23.312;2023-07-13T04:18:48;93953.13;;;27.49;43.31
20037;BME280;10179;42.640;23.312;2023-07-13T04:21:15;93980.81;;;27.75;42.73
20037;BME280;10179;42.640;23.312;2023-07-13T04:23:40;93877.34;;;27.24;42.71
20037;BME280;10179;42.640;23.312;2023-07-13T04:26:07;93926.06;;;27.66;41.96
20037;BME280;10179;42.640;23.312;2023-07-13T04:28:33;93996.66;;;28.15;42.08
20037;BME280;10179;42.640;23.312;2023-07-13T04:30:58;93985.53;;;28.17;41.92
20037;BME280;10179;42.640;23.312;2023-07-13T04:33:26;94011.66;;;28.34;41.43
20037;BME280;10179;42.640;23.312;2023-07-13T04:35:54;93999.06;;;28.38;41.08
20037;BME280;10179;42.640;23.312;2023-07-13T04:38:24;93890.75;;;27.71;40.97
20037;BME280;10179;42.640;23.312;2023-07-13T04:40:50;93997.13;;;28.47;40.96
20037;BME280;10179;42.640;23.312;2023-07-13T04:43:17;94012.09;;;28.65;40.70
20037;BME280;10179;42.640;23.312;2023-07-13T04:45:42;94016.78;;;28.77;41.09
20037;BME280;10179;42.640;23.312;2023-07-13T04:48:08;93912.31;;;28.30;40.66
20037;BME280;10179;42.640;23.312;2023-07-13T04:50:36;94020.22;;;29.07;40.35
20037;BME280;10179;42.640;23.312;2023-07-13T04:53:02;94011.47;;;29.22;39.88
20037;BME280;10179;42.640;23.312;2023-07-13T04:55:29;94014.91;;;29.32;39.61
20037;BME280;10179;42.640;23.312;2023-07-13T04:57:56;94022.63;;;29.54;39.04
20037;BME280;10179;42.640;23.312;2023-07-13T05:00:21;93912.81;;;28.87;39.14
20037;BME280;10179;42.640;23.312;2023-07-13T05:02:47;93808.00;;;28.38;38.91
20037;BME280;10179;42.640;23.312;2023-07-13T05:05:13;94007.88;;;29.76;38.86
20037;BME280;10179;42.640;23.312;2023-07-13T05:07:38;94025.44;;;29.91;38.64
20037;BME280;10179;42.640;23.312;2023-07-13T05:10:04;94006.19;;;29.71;38.05
20037;BME280;10179;42.640;23.312;2023-07-13T05:12:30;94023.38;;;29.88;38.24
20037;BME280;10179;42.640;23.312;2023-07-13T05:14:55;94034.44;;;29.95;37.81
20037;BME280;10179;42.640;23.312;2023-07-13T05:17:21;94036.72;;;30.05;37.44
20037;BME280;10179;42.640;23.312;2023-07-13T05:19:46;94046.19;;;30.11;37.14
20037;BME280;10179;42.640;23.312;2023-07-13T05:22:12;93909.22;;;29.28;36.61
20037;BME280;10179;42.640;23.312;2023-07-13T05:24:37;94028.34;;;30.10;37.11
20037;BME280;10179;42.640;23.312;2023-07-13T05:27:03;94039.22;;;30.35;37.60
20037;BME280;10179;42.640;23.312;2023-07-13T05:29:29;94044.41;;;30.52;36.63
20037;BME280;10179;42.640;23.312;2023-07-13T05:31:54;94042.91;;;30.67;36.36
20037;BME280;10179;42.640;23.312;2023-07-13T05:34:20;93933.97;;;30.12;36.12
20037;BME280;10179;42.640;23.312;2023-07-13T05:36:45;94042.56;;;30.93;35.89
20037;BME280;10179;42.640;23.312;2023-07-13T05:39:11;94020.97;;;30.84;35.70
20037;BME280;10179;42.640;23.312;2023-07-13T05:41:37;93907.13;;;30.19;35.69
20037;BME280;10179;42.640;23.312;2023-07-13T05:44:02;94054.66;;;31.24;35.96
20037;BME280;10179;42.640;23.312;2023-07-13T05:46:28;94040.91;;;31.45;35.63
20037;BME280;10179;42.640;23.312;2023-07-13T05:48:53;94044.34;;;31.57;34.95
20037;BME280;10179;42.640;23.312;2023-07-13T05:51:18;94046.03;;;31.78;34.73
20037;BME280;10179;42.640;23.312;2023-07-13T05:53:44;94048.19;;;32.00;34.30
20037;BME280;10179;42.640;23.312;2023-07-13T05:56:09;93903.84;;;31.10;34.52
20037;BME280;10179;42.640;23.312;2023-07-13T05:58:35;93988.84;;;32.02;33.65
20037;BME280;10179;42.640;23.312;2023-07-13T06:01:11;94042.63;;;32.60;33.21
20037;BME280;10179;42.640;23.312;2023-07-13T06:03:37;94040.22;;;32.74;33.37
20037;BME280;10179;42.640;23.312;2023-07-13T06:06:07;94036.22;;;32.88;32.75
20037;BME280;10179;42.640;23.312;2023-07-13T06:08:33;93995.34;;;32.84;31.47
20037;BME280;10179;42.640;23.312;2023-07-13T06:11:04;93978.38;;;32.91;30.90
20037;BME280;10179;42.640;23.312;2023-07-13T06:13:30;93942.59;;;32.92;30.95
20037;BME280;10179;42.640;23.312;2023-07-13T06:15:55;93987.03;;;33.35;31.19
20037;BME280;10179;42.640;23.312;2023-07-13T06:18:21;94005.16;;;33.47;30.84
20037;BME280;10179;42.640;23.312;2023-07-13T06:20:46;94055.00;;;33.67;31.78
20037;BME280;10179;42.640;23.312;2023-07-13T06:23:11;94050.66;;;33.66;32.09
20037;BME280;10179;42.640;23.312;2023-07-13T06:25:37;94051.41;;;33.63;32.02
20037;BME280;10179;42.640;23.312;2023-07-13T06:28:02;94047.47;;;33.60;32.02
20037;BME280;10179;42.640;23.312;2023-07-13T06:30:28;94007.81;;;33.24;32.03
20037;BME280;10179;42.640;23.312;2023-07-13T06:32:53;94046.69;;;33.60;31.87
20037;BME280;10179;42.640;23.312;2023-07-13T06:35:19;94027.88;;;33.55;32.03
20037;BME280;10179;42.640;23.312;2023-07-13T06:37:44;93972.25;;;33.36;31.25
20037;BME280;10179;42.640;23.312;2023-07-13T06:40:10;94025.13;;;33.74;32.25
20037;BME280;10179;42.640;23.312;2023-07-13T06:42:35;94020.41;;;33.71;32.02
20037;BME280;10179;42.640;23.312;2023-07-13T06:45:01;94021.50;;;33.66;32.15
20037;BME280;10179;42.640;23.312;2023-07-13T06:47:26;94005.38;;;33.58;32.16
20037;BME280;10179;42.640;23.312;2023-07-13T06:49:52;93974.75;;;33.45;32.37
20037;BME280;10179;42.640;23.312;2023-07-13T06:52:17;94033.41;;;34.01;30.70
20037;BME280;10179;42.640;23.312;2023-07-13T06:54:43;93968.06;;;33.62;31.00
20037;BME280;10179;42.640;23.312;2023-07-13T06:57:08;94020.00;;;33.92;32.05
20037;BME280;10179;42.640;23.312;2023-07-13T06:59:34;94049.75;;;34.01;32.24
20037;BME280;10179;42.640;23.312;2023-07-13T07:01:59;94046.59;;;33.99;32.06
20037;BME280;10179;42.640;23.312;2023-07-13T07:04:25;94023.94;;;33.94;31.50
20037;BME280;10179;42.640;23.312;2023-07-13T07:06:50;94025.50;;;33.95;31.26
20037;BME280;10179;42.640;23.312;2023-07-13T07:09:15;93803.00;;;32.69;32.00
20037;BME280;10179;42.640;23.312;2023-07-13T07:11:41;94044.16;;;34.39;31.46
20037;BME280;10179;42.640;23.312;2023-07-13T07:14:07;94051.97;;;34.41;30.75
20037;BME280;10179;42.640;23.312;2023-07-13T07:16:32;94047.31;;;34.41;30.63
20037;BME280;10179;42.640;23.312;2023-07-13T07:18:58;94047.03;;;34.50;30.42
20037;BME280;10179;42.640;23.312;2023-07-13T07:21:23;94048.81;;;34.62;30.25
20037;BME280;10179;42.640;23.312;2023-07-13T07:23:49;94057.16;;;34.73;30.04
20037;BME280;10179;42.640;23.312;2023-07-13T07:26:14;93988.44;;;34.40;29.91
20037;BME280;10179;42.640;23.312;2023-07-13T07:28:40;94046.56;;;34.98;29.73
20037;BME280;10179;42.640;23.312;2023-07-13T07:31:05;94037.38;;;35.09;29.39
20037;BME280;10179;42.640;23.312;2023-07-13T07:33:32;94045.50;;;35.02;29.32
20037;BME280;10179;42.640;23.312;2023-07-13T07:35:58;94035.78;;;35.05;29.53
20037;BME280;10179;42.640;23.312;2023-07-13T07:38:24;94013.03;;;34.97;29.37
20037;BME280;10179;42.640;23.312;2023-07-13T07:40:49;94038.25;;;35.17;28.95
20037;BME280;10179;42.640;23.312;2023-07-13T07:43:15;94028.63;;;35.27;28.58
20037;BME280;10179;42.640;23.312;2023-07-13T07:45:40;94037.41;;;35.43;28.54
20037;BME280;10179;42.640;23.312;2023-07-13T07:48:06;94020.72;;;35.52;28.84
20037;BME280;10179;42.640;23.312;2023-07-13T07:50:32;93924.63;;;35.09;29.15
20037;BME280;10179;42.640;23.312;2023-07-13T07:52:57;94002.28;;;35.82;28.35
20037;BME280;10179;42.640;23.312;2023-07-13T07:55:25;94018.25;;;36.18;28.53
20037;BME280;10179;42.640;23.312;2023-07-13T07:57:54;93955.53;;;35.95;28.53
20037;BME280;10179;42.640;23.312;2023-07-13T08:00:20;93943.09;;;36.04;28.43
20037;BME280;10179;42.640;23.312;2023-07-13T08:02:45;93980.91;;;36.47;27.83
20037;BME280;10179;42.640;23.312;2023-07-13T08:05:11;94009.28;;;36.72;27.81
20037;BME280;10179;42.640;23.312;2023-07-13T08:07:37;94007.34;;;36.80;26.98
20037;BME280;10179;42.640;23.312;2023-07-13T08:10:04;93980.75;;;36.81;26.94
20037;BME280;10179;42.640;23.312;2023-07-13T08:12:33;94004.38;;;37.10;26.46
20037;BME280;10179;42.640;23.312;2023-07-13T08:14:59;93935.78;;;36.89;26.77
20037;BME280;10179;42.640;23.312;2023-07-13T08:17:26;93994.78;;;37.63;26.29
20037;BME280;10179;42.640;23.312;2023-07-13T08:19:51;93734.16;;;36.23;25.88
20037;BME280;10179;42.640;23.312;2023-07-13T08:22:16;93927.41;;;37.65;26.22
20037;BME280;10179;42.640;23.312;2023-07-13T08:24:42;93872.97;;;37.46;25.45
20037;BME280;10179;42.640;23.312;2023-07-13T08:27:08;93879.63;;;37.63;25.04
20037;BME280;10179;42.640;23.312;2023-07-13T08:29:33;93987.03;;;38.58;24.69
20037;BME280;10179;42.640;23.312;2023-07-13T08:31:59;93981.88;;;38.71;25.00
20037;BME280;10179;42.640;23.312;2023-07-13T08:34:24;93953.66;;;38.63;24.66
20037;BME280;10179;42.640;23.312;2023-07-13T08:36:50;93965.00;;;38.83;24.82
20037;BME280;10179;42.640;23.312;2023-07-13T08:39:15;93820.00;;;38.20;23.88
20037;BME280;10179;42.640;23.312;2023-07-13T08:41:40;93920.56;;;39.02;23.70
20037;BME280;10179;42.640;23.312;2023-07-13T08:44:19;93955.25;;;39.52;23.44
20037;BME280;10179;42.640;23.312;2023-07-13T08:46:45;93963.78;;;39.75;23.24
20037;BME280;10179;42.640;23.312;2023-07-13T08:49:15;93928.50;;;39.59;23.23
20037;BME280;10179;42.640;23.312;2023-07-13T08:51:45;93973.81;;;40.03;23.13
20037;BME280;10179;42.640;23.312;2023-07-13T08:54:34;93984.72;;;40.18;22.51
20037;BME280;10179;42.640;23.312;2023-07-13T08:57:13;93993.31;;;40.27;22.57
20037;BME280;10179;42.640;23.312;2023-07-13T08:59:39;93981.06;;;40.31;22.44
20037;BME280;10179;42.640;23.312;2023-07-13T09:05:03;93998.81;;;40.27;21.91
20037;BME280;10179;42.640;23.312;2023-07-13T09:10:30;93967.00;;;39.59;22.69
20037;BME280;10179;42.640;23.312;2023-07-13T09:15:43;94018.84;;;39.72;22.74
20037;BME280;10179;42.640;23.312;2023-07-13T09:23:40;94013.97;;;39.94;22.11
20037;BME280;10179;42.640;23.312;2023-07-13T09:26:12;94013.94;;;40.01;22.39
20037;BME280;10179;42.640;23.312;2023-07-13T09:28:42;94021.00;;;40.05;21.88
20037;BME280;10179;42.640;23.312;2023-07-13T09:31:15;93998.25;;;39.94;22.06
20037;BME280;10179;42.640;23.312;2023-07-13T09:33:41;94011.09;;;40.12;21.75
20037;BME280;10179;42.640;23.312;2023-07-13T09:36:23;93977.88;;;39.88;21.65
20037;BME280;10179;42.640;23.312;2023-07-13T09:46:56;94012.28;;;40.11;22.30
20037;BME280;10179;42.640;23.312;2023-07-13T09:49:33;93924.53;;;39.68;22.35
20037;BME280;10179;42.640;23.312;2023-07-13T09:52:11;93987.06;;;40.23;21.59
20037;BME280;10179;42.640;23.312;2023-07-13T09:54:37;93979.97;;;40.22;21.64
20037;BME280;10179;42.640;23.312;2023-07-13T09:57:14;93955.25;;;40.15;21.75
20037;BME280;10179;42.640;23.312;2023-07-13T09:59:43;93928.28;;;39.95;21.83
20037;BME280;10179;42.640;23.312;2023-07-13T10:02:49;93971.22;;;40.34;21.47
20037;BME280;10179;42.640;23.312;2023-07-13T10:05:23;93941.41;;;40.22;21.82
20037;BME280;10179;42.640;23.312;2023-07-13T10:07:50;93953.50;;;40.35;21.89
20037;BME280;10179;42.640;23.312;2023-07-13T10:10:18;93957.78;;;40.40;22.15
20037;BME280;10179;42.640;23.312;2023-07-13T10:12:45;93934.47;;;40.06;22.22
20037;BME280;10179;42.640;23.312;2023-07-13T10:15:23;93891.91;;;39.70;22.05
20037;BME280;10179;42.640;23.312;2023-07-13T10:17:52;93926.34;;;39.89;22.07
20037;BME280;10179;42.640;23.312;2023-07-13T10:20:18;93930.69;;;39.86;22.03
20037;BME280;10179;42.640;23.312;2023-07-13T10:22:53;93894.72;;;39.59;21.66
20037;BME280;10179;42.640;23.312;2023-07-13T10:25:22;93940.03;;;39.99;21.93
20037;BME280;10179;42.640;23.312;2023-07-13T10:27:52;93923.72;;;40.23;21.01
20037;BME280;10179;42.640;23.312;2023-07-13T10:30:22;93945.63;;;40.75;21.07
20037;BME280;10179;42.640;23.312;2023-07-13T10:32:51;93941.38;;;41.05;19.70
20037;BME280;10179;42.640;23.312;2023-07-13T10:35:19;93947.34;;;41.30;19.84
20037;BME280;10179;42.640;23.312;2023-07-13T10:40:26;93898.78;;;41.67;19.54
20037;BME280;10179;42.640;23.312;2023-07-13T10:42:58;93935.16;;;42.09;18.81
20037;BME280;10179;42.640;23.312;2023-07-13T10:45:24;93754.53;;;41.16;18.84
20037;BME280;10179;42.640;23.312;2023-07-13T10:47:52;93904.81;;;42.32;18.57
20037;BME280;10179;42.640;23.312;2023-07-13T10:50:25;93930.22;;;42.67;18.54
20037;BME280;10179;42.640;23.312;2023-07-13T10:52:55;93924.44;;;42.81;16.99
20037;BME280;10179;42.640;23.312;2023-07-13T10:58:18;93824.38;;;42.70;15.56
20037;BME280;10179;42.640;23.312;2023-07-13T11:01:14;93873.78;;;43.24;14.90
20037;BME280;10179;42.640;23.312;2023-07-13T11:06:16;93898.97;;;43.99;14.67
20037;BME280;10179;42.640;23.312;2023-07-13T11:13:58;93806.06;;;44.11;14.02
20037;BME280;10179;42.640;23.312;2023-07-13T11:19:23;93792.59;;;44.13;13.99
20037;BME280;10179;42.640;23.312;2023-07-13T11:22:10;93876.88;;;44.57;13.42
20037;BME280;10179;42.640;23.312;2023-07-13T11:24:56;93875.91;;;44.35;14.57
20037;BME280;10179;42.640;23.312;2023-07-13T11:27:39;93883.72;;;43.74;16.35
20037;BME280;10179;42.640;23.312;2023-07-13T11:30:25;93869.97;;;43.18;17.60
20037;BME280;10179;42.640;23.312;2023-07-13T11:33:24;93865.56;;;42.61;17.49
20037;BME280;10179;42.640;23.312;2023-07-13T11:38:30;93856.59;;;41.39;18.57
20037;BME280;10179;42.640;23.312;2023-07-13T11:41:00;93867.16;;;41.17;19.37
20037;BME280;10179;42.640;23.312;2023-07-13T11:43:29;93849.56;;;40.77;19.38
20037;BME280;10179;42.640;23.312;2023-07-13T11:45:54;93857.28;;;40.59;18.33
20037;BME280;10179;42.640;23.312;2023-07-13T11:48:26;93856.81;;;40.26;17.36
20037;BME280;10179;42.640;23.312;2023-07-13T11:50:58;93809.41;;;39.63;18.22
20037;BME280;10179;42.640;23.312;2023-07-13T11:53:28;93758.31;;;39.17;18.29
20037;BME280;10179;42.640;23.312;2023-07-13T11:55:55;93857.88;;;39.49;19.15
20037;BME280;10179;42.640;23.312;2023-07-13T11:58:24;93856.84;;;39.29;17.99
20037;BME280;10179;42.640;23.312;2023-07-13T12:00:50;93818.91;;;38.95;18.70
20037;BME280;10179;42.640;23.312;2023-07-13T12:03:20;93854.63;;;38.99;18.92
20037;BME280;10179;42.640;23.312;2023-07-13T12:06:01;93739.69;;;38.09;19.74
20037;BME280;10179;42.640;23.312;2023-07-13T12:08:28;93839.41;;;38.80;20.40
20037;BME280;10179;42.640;23.312;2023-07-13T12:10:59;93837.50;;;38.70;19.39
20037;BME280;10179;42.640;23.312;2023-07-13T12:13:27;93693.94;;;37.74;19.76
20037;BME280;10179;42.640;23.312;2023-07-13T12:15:54;93789.34;;;38.33;21.11
20037;BME280;10179;42.640;23.312;2023-07-13T12:18:22;93812.88;;;38.48;21.84
20037;BME280;10179;42.640;23.312;2023-07-13T12:20:49;93834.75;;;38.66;21.85
20037;BME280;10179;42.640;23.312;2023-07-13T12:25:56;93772.84;;;38.47;21.27
20037;BME280;10179;42.640;23.312;2023-07-13T12:28:37;93707.50;;;38.13;21.29
20037;BME280;10179;42.640;23.312;2023-07-13T12:31:07;93814.25;;;38.88;21.08
20037;BME280;10179;42.640;23.312;2023-07-13T12:33:33;93814.22;;;38.92;21.24
20037;BME280;10179;42.640;23.312;2023-07-13T12:36:01;93741.09;;;38.46;21.40
20037;BME280;10179;42.640;23.312;2023-07-13T12:38:30;93812.25;;;38.96;21.41
20037;BME280;10179;42.640;23.312;2023-07-13T12:40:55;93809.09;;;38.98;21.54
20037;BME280;10179;42.640;23.312;2023-07-13T12:43:22;93750.78;;;38.72;21.80
20037;BME280;10179;42.640;23.312;2023-07-13T12:46:00;93761.28;;;38.84;21.37
20037;BME280;10179;42.640;23.312;2023-07-13T12:48:27;93713.59;;;38.53;21.10
20037;BME280;10179;42.640;23.312;2023-07-13T12:50:54;93800.41;;;39.06;21.50
20037;BME280;10179;42.640;23.312;2023-07-13T12:53:28;93725.69;;;38.63;21.37
20037;BME280;10179;42.640;23.312;2023-07-13T12:55:58;93561.59;;;37.52;21.99
20037;BME280;10179;42.640;23.312;2023-07-13T12:58:30;93792.94;;;39.07;21.45
20037;BME280;10179;42.640;23.312;2023-07-13T13:00:59;93747.59;;;38.74;21.35
20037;BME280;10179;42.640;23.312;2023-07-13T13:06:04;93773.38;;;38.98;20.81
20037;BME280;10179;42.640;23.312;2023-07-13T13:08:34;93764.06;;;38.81;20.76
20037;BME280;10179;42.640;23.312;2023-07-13T13:11:01;93756.63;;;38.74;21.29
20037;BME280;10179;42.640;23.312;2023-07-13T13:13:27;93774.25;;;38.84;21.28
20037;BME280;10179;42.640;23.312;2023-07-13T13:15:52;93749.19;;;38.71;21.18
20037;BME280;10179;42.640;23.312;2023-07-13T13:18:20;93766.41;;;38.86;21.26
20037;BME280;10179;42.640;23.312;2023-07-13T13:20:46;93721.75;;;38.64;21.51
20037;BME280;10179;42.640;23.312;2023-07-13T13:23:17;93764.41;;;38.90;21.39
20037;BME280;10179;42.640;23.312;2023-07-13T13:25:49;93769.50;;;38.92;21.14
20037;BME280;10179;42.640;23.312;2023-07-13T13:28:17;93764.78;;;38.92;20.67
20037;BME280;10179;42.640;23.312;2023-07-13T13:30:45;93689.69;;;38.50;21.26
20037;BME280;10179;42.640;23.312;2023-07-13T13:33:13;93765.53;;;38.96;20.97
20037;BME280;10179;42.640;23.312;2023-07-13T13:35:40;93759.25;;;38.96;20.68
20037;BME280;10179;42.640;23.312;2023-07-13T13:38:14;93756.16;;;38.94;20.83
20037;BME280;10179;42.640;23.312;2023-07-13T13:40:42;93713.88;;;38.70;20.63
20037;BME280;10179;42.640;23.312;2023-07-13T13:43:24;93570.88;;;37.80;20.98
20037;BME280;10179;42.640;23.312;2023-07-13T13:45:57;93650.56;;;38.32;21.18